Calne, United Kingdom
Current Conditions -  °F | °C
As of 6:58 AM on Saturday 20 Dec 2014 (Local Time) from EGVA Reporting Station
Overcast Overcast  
Wind Chill: 38°   Ceiling: 3600
Heat Index: 44°   Visibility: 6mi
Dew Point: 38°   Wind: 12mph
Humidity: 78%   Direction: 270°W
Pressure: 30.23"   Gusts: NA
Location:  51.44°N, 2.01°W
Report Text: EGVA 200658Z AUTO 27010KT 9999 OVC036 07/03 A3023 RMK AO2 SLP243 T00680032
Loading
Personal Weather Stations






























Interactive Weather Map New forecast layout! Learn more

10-Day Weather Forecast

Advertisements
Track Severe Weather on mobile